Aérodrome :
LOGIN :

S'inscrire | Disclaimer

   EN    FR    IT 

 










Légende :    VFR   VFR Marginal   IFR   IFR Intensif   IFR Très Intensif
Visi : 
Plafond : 
>= 8 km
>= 3000ft
5 à 8 km
1000 à 3000 ft
1500m à 5 km
500 à 1000 ft
800 à 1500m
200 à 500 ft
< 800m
< 200 ft
Symboles :   Orages  Brouillard  Fortes neiges  Fortes précipitations  Vent > 20 kt
SIGMETs :   Divers  Orages  Givrage  Turbulence  Onde Orograph.  Cendres Volcan.






- Altitude de l'aérodrome : 177 ft
- Code IATA : AYT


LTAI - Antalya

DERNIER METAR :
  • 221550Z 36012KT CAVOK 13/M10 Q1021 NOSIG RMK RWY18C 35013KT RWY36R 35013KT RWY18L 35013KT

METARs EXPIRÉS :
  • 221520Z 36012KT CAVOK 13/M10 Q1021 NOSIG RMK RWY18C 35012KT RWY36R 35012KT RWY18L 35012KT
  • 221450Z 36012KT CAVOK 14/M10 Q1021 NOSIG RMK RWY18C 36014KT RWY36R 35012KT RWY18L 36011KT
  • 221420Z 36012KT CAVOK 15/M10 Q1021 NOSIG RMK RWY18C 36013KT RWY36R 36012KT RWY18L 36012KT
  • 221350Z 36015KT CAVOK 16/M09 Q1021 NOSIG RMK RWY18C 35015KT RWY36R 35012KT RWY18L 35010KT 320V020
  • 221320Z 36014KT CAVOK 16/M10 Q1021 NOSIG RMK RWY18C 36015KT RWY36R 36011KT RWY18L 36010KT

TAF TAF LTAI
Valide du 22 à 12h jusqu'au 23 à 12h UTC


221040Z 2212/2312 35012KT CAVOK



MET'MAP, la Météo Aéronautique d'un coup d'oeil ! - Copyright ORBIFLY Décembre 2007 - Disclaimer

ORBIFLY MET'MAP TEAM :

Programmation & Développement : Alexandra Zaïnal
Sur une idée originale de : Baudouin d'Aumeries
Assistance à la programmation : Marc-Olivier Méhu
Soutien technique & logistique : Manuel Goepfert

Contact : metmap@orbifly.com




SOURCES & CREDITS :

   NOAA